CST,Max TemperatureF,Mean TemperatureF,Min TemperatureF,Max Dew PointF,MeanDew PointF,Min DewpointF,Max Humidity, Mean Humidity, Min Humidity, Max Sea Level PressureIn, Mean Sea Level PressureIn, Min Sea Level PressureIn, Max VisibilityMiles, Mean VisibilityMiles, Min VisibilityMiles, Max Wind SpeedMPH, Mean Wind SpeedMPH, Max Gust SpeedMPH,PrecipitationIn, CloudCover, Events, WindDirDegrees
2013-1-1,46,40,33,45,40,33,100,96,92,30.07,30.03,29.98,10,4,0,14,4,17,0.78,8,Fog-Rain,326
2013-1-2,35,33,30,34,30,28,100,93,85,30.21,30.12,30.03,10,4,0,13,5,17,0.00,8,Fog,1
2013-1-3,40,34,27,27,23,19,92,70,48,30.39,30.28,30.14,10,9,6,12,4,13,0.00,2,,332
2013-1-4,40,30,20,23,21,18,92,68,44,30.46,30.41,30.37,10,10,8,13,4,15,0.00,1,,336
2013-1-5,43,32,20,28,22,17,92,66,39,30.43,30.33,30.23,10,10,7,8,1,12,0.00,4,,200
2013-1-6,43,36,29,32,30,24,89,75,60,30.34,30.22,30.14,10,10,8,15,6,21,0.00,7,,285
2013-1-7,52,38,23,27,23,21,88,59,30,30.41,30.34,30.28,10,9,5,13,3,17,0.00,1,,99
2013-1-8,53,42,30,46,35,25,86,68,50,30.38,30.31,30.27,10,10,10,13,5,20,0.00,1,,169
2013-1-9,56,53,49,55,52,48,100,95,89,30.45,30.40,30.31,10,4,0,12,4,20,0.21,8,Fog-Rain,92
2013-1-10,62,56,49,54,51,48,100,86,72,30.44,30.32,30.09,10,9,0,21,7,35,0.01,7,Fog-Rain,138
2013-1-11,68,63,58,61,57,54,93,81,68,30.12,30.08,30.03,10,9,2,17,9,31,0.11,7,Rain,186
2013-1-12,67,65,62,63,60,56,93,86,78,30.13,30.06,29.96,10,9,2,16,7,25,0.04,7,Rain,186
2013-1-13,63,50,37,59,56,35,97,88,78,30.13,29.99,29.92,10,7,1,18,10,32,1.20,8,Rain,190
2013-1-14,38,35,32,36,33,30,100,93,85,30.32,30.21,30.13,10,4,0,16,8,22,0.47,8,Fog-Rain,23
2013-1-15,36,34,32,34,33,30,100,96,92,30.21,30.09,29.93,10,3,0,13,6,15,1.11,8,Fog-Rain,46
2013-1-16,38,37,35,37,35,33,100,93,85,30.08,30.01,29.93,10,8,2,13,4,20,0.39,8,Rain,337
2013-1-17,38,34,30,35,27,24,92,81,69,30.39,30.10,29.94,10,10,10,25,11,36,0.01,5,,17
2013-1-18,47,36,25,25,22,14,92,60,28,30.54,30.46,30.40,10,7,2,10,3,14,0.00,0,,108
2013-1-19,53,42,31,26,25,22,69,49,29,30.40,30.29,30.18,10,10,10,13,6,21,0.00,0,,197
2013-1-20,52,41,29,31,26,19,70,51,32,30.22,30.17,30.13,10,10,10,13,5,17,0.00,0,,290
2013-1-21,39,30,20,20,13,5,81,54,27,30.24,30.18,30.12,10,10,10,18,8,28,0.00,0,,304
2013-1-22,28,21,14,6,-1,-6,59,42,25,30.38,30.32,30.23,10,10,10,13,7,18,0.00,4,,308
2013-1-23,44,31,18,31,15,1,67,52,37,30.37,30.28,30.15,10,10,10,13,4,20,0.00,2,,234
2013-1-24,41,32,23,31,13,1,70,49,28,30.41,30.31,30.14,10,10,10,17,9,23,0.00,2,,5
2013-1-25,34,31,27,34,27,4,100,66,31,30.29,30.14,30.06,10,4,0,16,6,26,0.55,8,Fog-Rain-Snow,216
2013-1-26,45,36,27,30,27,24,100,73,45,30.37,30.27,30.18,10,7,1,9,3,12,0.00,2,,335
2013-1-27,47,36,25,36,29,23,100,75,49,30.40,30.34,30.29,10,7,2,15,6,22,0.02,4,Rain,151
2013-1-28,55,49,42,47,41,29,86,70,53,30.32,30.26,30.20,10,8,5,15,7,24,0.00,6,,184
2013-1-29,64,57,50,57,54,46,93,86,78,30.20,30.02,29.77,10,7,2,25,8,40,0.00,7,,177
2013-1-30,64,48,30,59,46,24,96,87,70,29.80,29.63,29.47,10,6,1,25,14,40,2.22,8,Rain-Snow-Thunderstorm,240
2013-1-31,38,33,28,30,22,18,78,65,52,30.08,29.99,29.80,10,8,1,21,12,30,T,7,Snow,267